createdAt,value
2018-10-05T00:02:00.660Z,10.93
2018-10-05T00:04:29.966Z,13.90
2018-10-05T00:06:59.196Z,12.23
2018-10-05T00:09:28.513Z,10.43
2018-10-05T00:11:58.211Z,8.90
2018-10-05T00:14:27.306Z,7.67
2018-10-05T00:16:56.501Z,6.23
2018-10-05T00:19:25.865Z,5.47
2018-10-05T00:21:55.102Z,4.40
2018-10-05T00:24:24.187Z,5.00
2018-10-05T00:26:53.674Z,5.23
2018-10-05T00:29:22.813Z,5.07
2018-10-05T00:31:52.003Z,5.40
2018-10-05T00:34:21.307Z,5.00
2018-10-05T00:36:50.511Z,4.97
2018-10-05T00:39:19.703Z,4.50
2018-10-05T00:41:49.033Z,4.80
2018-10-05T00:44:18.793Z,4.60
2018-10-05T00:46:47.890Z,4.53
2018-10-05T00:49:17.185Z,4.73
2018-10-05T00:51:46.301Z,4.37
2018-10-05T00:54:15.494Z,4.60
2018-10-05T00:56:44.758Z,4.90
2018-10-05T00:59:13.986Z,5.20
2018-10-05T01:01:43.190Z,5.10
2018-10-05T01:04:12.737Z,5.00
2018-10-05T01:06:42.006Z,5.07
2018-10-05T01:09:11.122Z,5.17
2018-10-05T01:11:40.727Z,5.17
2018-10-05T01:14:09.991Z,4.60
2018-10-05T01:16:39.285Z,4.70
2018-10-05T01:19:08.793Z,5.30
2018-10-05T01:21:38.017Z,6.57
2018-10-05T01:24:07.229Z,5.60
2018-10-05T01:26:36.372Z,5.37
2018-10-05T01:29:05.611Z,7.17
2018-10-05T01:31:34.703Z,10.50
2018-10-05T01:34:04.023Z,8.23
2018-10-05T01:36:33.208Z,6.23
2018-10-05T01:39:05.790Z,5.77
2018-10-05T01:41:36.409Z,5.57
2018-10-05T01:44:05.560Z,6.23
2018-10-05T01:46:34.969Z,6.17
2018-10-05T01:49:04.401Z,5.97
2018-10-05T01:51:34.686Z,6.50
2018-10-05T01:54:04.942Z,5.80
2018-10-05T01:56:34.699Z,6.07
2018-10-05T01:59:04.079Z,6.27
2018-10-05T02:01:33.917Z,6.63
2018-10-05T02:04:03.108Z,6.17
2018-10-05T02:06:32.413Z,6.27
2018-10-05T02:09:01.713Z,6.33
2018-10-05T02:11:30.909Z,6.80
2018-10-05T02:14:00.228Z,5.90
2018-10-05T02:16:29.877Z,5.80
2018-10-05T02:18:59.026Z,5.60
2018-10-05T02:21:28.129Z,5.63
2018-10-05T02:23:57.581Z,5.77
2018-10-05T02:26:26.906Z,4.97
2018-10-05T02:28:56.113Z,4.97
2018-10-05T02:31:25.370Z,4.83
2018-10-05T02:33:54.402Z,4.50
2018-10-05T02:36:23.523Z,4.80
2018-10-05T02:38:52.778Z,4.57
2018-10-05T02:41:21.881Z,4.63
2018-10-05T02:43:51.001Z,4.97
2018-10-05T02:46:20.165Z,6.23
2018-10-05T02:48:49.605Z,8.87
2018-10-05T02:51:18.814Z,10.13
2018-10-05T02:53:49.177Z,9.67
2018-10-05T02:56:18.337Z,9.93
2018-10-05T02:58:47.618Z,9.33
2018-10-05T03:01:27.437Z,11.70
2018-10-05T03:03:56.671Z,13.27
2018-10-05T03:06:25.768Z,14.07
2018-10-05T03:08:55.173Z,11.60
2018-10-05T03:11:24.298Z,9.40
2018-10-05T03:13:53.457Z,8.30
2018-10-05T03:16:23.136Z,6.87
2018-10-05T03:18:52.462Z,6.53
2018-10-05T03:21:21.763Z,5.97
2018-10-05T03:23:51.131Z,4.83
2018-10-05T03:26:20.365Z,4.90
2018-10-05T03:28:49.595Z,5.07
2018-10-05T03:31:18.713Z,4.60
2018-10-05T03:33:47.899Z,4.90
2018-10-05T03:36:17.167Z,4.43
2018-10-05T03:38:46.427Z,4.53
2018-10-05T03:41:15.665Z,4.40
2018-10-05T03:43:44.869Z,5.10
2018-10-05T03:46:14.365Z,4.07
2018-10-05T03:48:43.449Z,4.00
2018-10-05T03:51:12.680Z,4.67
2018-10-05T03:53:41.981Z,4.83
2018-10-05T03:56:11.220Z,4.50
2018-10-05T03:58:40.445Z,7.53
2018-10-05T04:01:09.977Z,6.83
2018-10-05T04:03:39.162Z,6.40
2018-10-05T04:06:08.354Z,5.83
2018-10-05T04:08:37.578Z,5.97
2018-10-05T04:11:07.162Z,6.07
2018-10-05T04:13:36.449Z,7.13
2018-10-05T04:16:05.749Z,7.30
2018-10-05T04:18:35.069Z,6.43
2018-10-05T04:21:04.269Z,8.70
2018-10-05T04:23:33.503Z,9.70
2018-10-05T04:26:02.655Z,11.33
2018-10-05T04:28:31.859Z,8.37
2018-10-05T04:31:01.003Z,8.87
2018-10-05T04:33:30.135Z,9.43
2018-10-05T04:35:59.246Z,8.53
2018-10-05T04:38:28.465Z,27.20
2018-10-05T04:40:57.516Z,20.83
2018-10-05T04:43:26.803Z,11.57
2018-10-05T04:45:55.961Z,12.67
2018-10-05T04:48:25.075Z,11.03
2018-10-05T04:50:54.258Z,13.20
2018-10-05T04:53:23.504Z,12.70
2018-10-05T04:55:52.877Z,10.70
2018-10-05T04:58:22.154Z,10.60
2018-10-05T05:00:51.625Z,8.43
2018-10-05T05:03:20.820Z,8.90
2018-10-05T05:05:50.190Z,7.70
2018-10-05T05:08:19.678Z,28.33
2018-10-05T05:10:48.980Z,12.40
2018-10-05T05:13:18.298Z,9.73
2018-10-05T05:15:47.609Z,8.60
2018-10-05T05:18:16.773Z,8.40
2018-10-05T05:20:45.974Z,7.53
2018-10-05T05:23:15.467Z,7.00
2018-10-05T05:25:44.561Z,6.63
2018-10-05T05:28:13.762Z,6.53
2018-10-05T05:30:43.397Z,7.07
2018-10-05T05:33:12.672Z,6.43
2018-10-05T05:35:41.897Z,8.37
2018-10-05T05:38:11.141Z,7.50
2018-10-05T05:40:40.365Z,9.03
2018-10-05T05:43:09.693Z,6.30
2018-10-05T05:45:39.137Z,5.93
2018-10-05T05:48:08.571Z,6.17
2018-10-05T05:50:38.104Z,5.50
2018-10-05T05:53:07.451Z,5.87
2018-10-05T05:55:36.571Z,5.47
2018-10-05T05:58:05.873Z,5.63
2018-10-05T06:00:35.307Z,4.97
2018-10-05T06:03:04.495Z,4.70
2018-10-05T06:05:33.791Z,4.00
2018-10-05T06:08:04.287Z,4.47
2018-10-05T06:10:33.515Z,4.53
2018-10-05T06:13:02.605Z,4.63
2018-10-05T06:15:31.714Z,4.90
2018-10-05T06:18:00.617Z,5.13
2018-10-05T06:20:29.501Z,5.00
2018-10-05T06:22:58.697Z,23.83
2018-10-05T06:25:27.602Z,34.10
2018-10-05T06:27:56.865Z,15.53
2018-10-05T06:30:26.110Z,10.73
2018-10-05T06:32:55.269Z,7.00
2018-10-05T06:35:24.519Z,5.80
2018-10-05T06:37:54.154Z,8.13
2018-10-05T06:40:23.453Z,5.23
2018-10-05T06:42:52.645Z,5.50
2018-10-05T06:45:21.893Z,5.60
2018-10-05T06:47:51.126Z,6.00
2018-10-05T06:50:20.361Z,7.80
2018-10-05T06:52:49.766Z,4.83
2018-10-05T06:55:18.842Z,5.87
2018-10-05T06:57:47.921Z,4.80
2018-10-05T07:00:17.347Z,4.30
2018-10-05T07:02:46.593Z,5.63
2018-10-05T07:05:15.749Z,6.07
2018-10-05T07:07:45.063Z,6.93
2018-10-05T07:10:14.541Z,10.80
2018-10-05T07:12:43.714Z,12.40
2018-10-05T07:15:13.329Z,11.83
2018-10-05T07:17:42.570Z,13.67
2018-10-05T07:20:11.760Z,17.63
2018-10-05T07:22:41.118Z,9.37
2018-10-05T07:25:10.410Z,10.57
2018-10-05T07:27:39.722Z,7.73
2018-10-05T07:30:09.383Z,6.53
2018-10-05T07:32:38.650Z,5.67
2018-10-05T07:35:07.845Z,6.40
2018-10-05T07:37:37.360Z,6.00
2018-10-05T07:40:06.629Z,6.63
2018-10-05T07:42:35.725Z,7.43
2018-10-05T07:45:05.120Z,9.30
2018-10-05T07:47:34.238Z,6.63
2018-10-05T07:50:03.357Z,6.30
2018-10-05T07:52:32.683Z,5.93
2018-10-05T07:55:01.939Z,6.97
2018-10-05T07:57:31.242Z,6.23
2018-10-05T08:00:01.166Z,4.93
2018-10-05T08:02:30.330Z,4.90
2018-10-05T08:04:59.432Z,5.57
2018-10-05T08:07:28.892Z,5.53
2018-10-05T08:09:58.133Z,5.13
2018-10-05T08:12:27.353Z,5.27
2018-10-05T08:14:56.861Z,5.03
2018-10-05T08:17:26.157Z,4.77
2018-10-05T08:19:55.438Z,5.30
2018-10-05T08:22:24.957Z,4.63
2018-10-05T08:24:54.057Z,4.60
2018-10-05T08:27:23.167Z,5.07
2018-10-05T08:29:52.565Z,4.73
2018-10-05T08:32:24.402Z,4.40
2018-10-05T08:34:53.734Z,4.60
2018-10-05T08:37:22.989Z,4.80
2018-10-05T08:39:52.390Z,4.60
2018-10-05T08:42:21.955Z,4.43
2018-10-05T08:44:51.130Z,4.37
2018-10-05T08:47:20.083Z,4.07
2018-10-05T08:49:50.237Z,3.93
2018-10-05T08:52:19.451Z,3.50
2018-10-05T08:54:48.715Z,3.90
2018-10-05T08:57:18.078Z,4.17
2018-10-05T08:59:47.318Z,4.07
2018-10-05T09:02:16.616Z,3.80
2018-10-05T09:04:46.060Z,3.77
2018-10-05T09:07:15.213Z,3.57
2018-10-05T09:09:44.405Z,4.30
2018-10-05T09:12:13.762Z,4.07
2018-10-05T09:14:43.139Z,3.33
2018-10-05T09:17:12.419Z,3.37
2018-10-05T09:19:42.030Z,3.70
2018-10-05T09:22:11.256Z,3.80
2018-10-05T09:24:40.535Z,3.23
2018-10-05T09:27:09.970Z,3.43
2018-10-05T09:29:39.310Z,3.20
2018-10-05T09:32:08.413Z,3.40
2018-10-05T09:34:37.737Z,3.30
2018-10-05T09:37:06.823Z,2.67
2018-10-05T09:39:36.033Z,3.70
2018-10-05T09:42:05.361Z,3.10
2018-10-05T09:44:34.769Z,3.33
2018-10-05T09:47:04.015Z,3.40
2018-10-05T09:49:34.531Z,2.30
2018-10-05T09:52:03.928Z,2.70
2018-10-05T09:54:33.124Z,2.63
2018-10-05T09:57:02.422Z,2.70
2018-10-05T09:59:31.661Z,2.57
2018-10-05T10:02:05.954Z,2.90
2018-10-05T10:04:35.265Z,2.90
2018-10-05T10:07:04.589Z,2.60
2018-10-05T10:09:33.967Z,2.97
2018-10-05T10:12:03.088Z,2.67
2018-10-05T10:14:32.374Z,5.13
2018-10-05T10:17:01.619Z,3.33
2018-10-05T10:19:30.850Z,2.60
2018-10-05T10:22:00.045Z,3.27
2018-10-05T10:24:30.417Z,2.47
2018-10-05T10:26:59.679Z,2.47
2018-10-05T10:29:29.037Z,2.83
2018-10-05T10:31:58.560Z,2.60
2018-10-05T10:34:27.762Z,2.60
2018-10-05T10:36:57.046Z,2.50
2018-10-05T10:39:26.357Z,3.00
2018-10-05T10:41:55.501Z,2.20
2018-10-05T10:44:24.596Z,2.47
2018-10-05T10:46:53.817Z,2.53
2018-10-05T10:49:23.167Z,2.70
2018-10-05T10:51:52.517Z,2.43
2018-10-05T10:54:22.185Z,2.60
2018-10-05T10:56:51.205Z,2.50
2018-10-05T10:59:20.288Z,3.40
2018-10-05T11:01:49.546Z,2.40
2018-10-05T11:04:18.847Z,2.10
2018-10-05T11:06:48.379Z,2.47
2018-10-05T11:09:17.745Z,2.40
2018-10-05T11:11:47.073Z,2.20
2018-10-05T11:14:16.201Z,2.60
2018-10-05T11:16:45.409Z,2.77
2018-10-05T11:19:14.565Z,2.73
2018-10-05T11:21:43.869Z,2.73
2018-10-05T11:24:13.385Z,2.50
2018-10-05T11:26:42.469Z,2.50
2018-10-05T11:29:11.694Z,2.17
2018-10-05T11:31:41.025Z,2.37
2018-10-05T11:34:10.194Z,2.70
2018-10-05T11:36:39.459Z,4.43
2018-10-05T11:39:09.002Z,2.60
2018-10-05T11:41:38.061Z,2.70
2018-10-05T11:44:07.363Z,2.00
2018-10-05T11:46:36.633Z,3.60
2018-10-05T11:49:06.025Z,3.37
2018-10-05T11:51:35.173Z,2.40
2018-10-05T11:54:04.803Z,2.27
2018-10-05T11:56:33.980Z,2.80
2018-10-05T11:59:03.163Z,2.10
2018-10-05T12:01:32.517Z,2.43
2018-10-05T12:04:01.695Z,2.50
2018-10-05T12:06:30.746Z,2.30
2018-10-05T12:09:00.001Z,2.47
2018-10-05T12:11:29.509Z,2.70
2018-10-05T12:13:58.877Z,7.20
2018-10-05T12:16:28.245Z,2.40
2018-10-05T12:18:57.479Z,2.10
2018-10-05T12:21:26.693Z,2.33
2018-10-05T12:23:55.817Z,2.07
2018-10-05T12:26:25.016Z,2.90
2018-10-05T12:28:54.062Z,2.60
2018-10-05T12:31:23.397Z,3.37
2018-10-05T12:33:52.665Z,2.67
2018-10-05T12:36:21.985Z,2.83
2018-10-05T12:38:51.358Z,2.97
2018-10-05T12:41:20.484Z,2.70
2018-10-05T12:43:49.763Z,2.40
2018-10-05T12:46:18.994Z,2.33
2018-10-05T12:48:48.143Z,2.50
2018-10-05T12:51:17.248Z,2.53
2018-10-05T12:53:48.507Z,2.43
2018-10-05T12:56:17.683Z,2.33
2018-10-05T12:58:46.786Z,2.87
2018-10-05T13:01:16.323Z,2.50
2018-10-05T13:03:45.471Z,2.70
2018-10-05T13:06:14.585Z,2.37
2018-10-05T13:08:43.877Z,2.50
2018-10-05T13:11:13.066Z,2.27
2018-10-05T13:13:42.173Z,2.10
2018-10-05T13:16:11.769Z,2.43
2018-10-05T13:18:41.090Z,2.60
2018-10-05T13:21:10.265Z,2.20
2018-10-05T13:23:39.743Z,2.50
2018-10-05T13:26:09.489Z,2.63
2018-10-05T13:28:38.813Z,2.20
2018-10-05T13:31:08.333Z,2.40
2018-10-05T13:33:37.634Z,2.80
2018-10-05T13:36:06.689Z,4.03
2018-10-05T13:38:36.201Z,3.47
2018-10-05T13:41:05.387Z,3.00
2018-10-05T13:43:34.677Z,2.37
2018-10-05T13:46:04.161Z,2.60
2018-10-05T13:48:33.403Z,2.57
2018-10-05T13:51:02.590Z,6.00
2018-10-05T13:53:31.999Z,3.17
2018-10-05T13:56:01.187Z,3.00
2018-10-05T13:58:30.481Z,2.70
2018-10-05T14:00:59.997Z,2.40
2018-10-05T14:03:29.177Z,2.70
2018-10-05T14:05:58.398Z,2.40
2018-10-05T14:08:27.707Z,2.67
2018-10-05T14:10:56.821Z,3.10
2018-10-05T14:13:26.014Z,2.47
2018-10-05T14:15:55.301Z,2.30
2018-10-05T14:18:24.493Z,2.30
2018-10-05T14:20:53.465Z,2.97
2018-10-05T14:23:23.194Z,3.17
2018-10-05T14:25:52.372Z,2.13
2018-10-05T14:28:21.686Z,2.53
2018-10-05T14:30:51.012Z,2.70
2018-10-05T14:33:20.188Z,3.20
2018-10-05T14:35:49.286Z,2.47
2018-10-05T14:38:18.637Z,2.67
2018-10-05T14:40:47.774Z,2.50
2018-10-05T14:43:16.873Z,2.33
2018-10-05T14:45:46.433Z,2.07
2018-10-05T14:48:15.781Z,2.50
2018-10-05T14:50:44.985Z,2.50
2018-10-05T14:53:14.159Z,2.57
2018-10-05T14:55:43.277Z,3.40
2018-10-05T14:58:12.417Z,3.87
2018-10-05T15:00:42.045Z,2.67
2018-10-05T15:03:11.284Z,3.10
2018-10-05T15:05:40.508Z,5.30
2018-10-05T15:08:09.726Z,3.30
2018-10-05T15:10:38.983Z,3.90
2018-10-05T15:13:08.231Z,7.03
2018-10-05T15:15:37.700Z,4.93
2018-10-05T15:18:07.067Z,6.30
2018-10-05T15:20:36.367Z,3.47
2018-10-05T15:23:05.817Z,5.07
2018-10-05T15:25:34.969Z,4.73
2018-10-05T15:28:04.182Z,4.33
2018-10-05T15:30:33.482Z,4.30
2018-10-05T15:33:02.695Z,6.77
2018-10-05T15:35:31.851Z,5.10
2018-10-05T15:38:01.493Z,4.90
2018-10-05T15:40:30.674Z,4.97
2018-10-05T15:42:59.768Z,5.57
2018-10-05T15:45:29.133Z,6.40
2018-10-05T15:47:58.269Z,4.60
2018-10-05T15:50:27.346Z,5.10
2018-10-05T15:52:56.719Z,4.13
2018-10-05T15:55:26.146Z,6.63
2018-10-05T15:57:55.324Z,7.07
2018-10-05T16:00:25.143Z,4.87
2018-10-05T16:02:54.470Z,4.07
2018-10-05T16:05:23.819Z,3.87
2018-10-05T16:07:53.629Z,4.37
2018-10-05T16:10:22.788Z,4.77
2018-10-05T16:12:51.885Z,4.63
2018-10-05T16:15:21.489Z,5.97
2018-10-05T16:17:50.717Z,5.87
2018-10-05T16:20:20.070Z,5.70
2018-10-05T16:22:49.306Z,5.70
2018-10-05T16:25:18.509Z,4.60
2018-10-05T16:27:47.695Z,5.07
2018-10-05T16:30:17.058Z,3.83
2018-10-05T16:32:46.368Z,4.03
2018-10-05T16:35:15.734Z,3.70
2018-10-05T16:37:45.014Z,4.30
2018-10-05T16:40:14.329Z,5.47
2018-10-05T16:42:43.643Z,5.87
2018-10-05T16:45:13.102Z,7.03
2018-10-05T16:47:42.241Z,7.00
2018-10-05T16:50:11.486Z,16.00
2018-10-05T16:52:40.935Z,18.40
2018-10-05T16:55:10.170Z,17.17
2018-10-05T16:57:39.453Z,12.67
2018-10-05T17:00:09.185Z,11.13
2018-10-05T17:02:38.364Z,9.53
2018-10-05T17:05:07.542Z,9.17
2018-10-05T17:07:36.813Z,8.87
2018-10-05T17:10:06.559Z,7.33
2018-10-05T17:12:35.782Z,7.43
2018-10-05T17:15:05.250Z,7.67
2018-10-05T17:17:34.370Z,7.73
2018-10-05T17:20:03.448Z,8.37
2018-10-05T17:22:32.896Z,7.07
2018-10-05T17:25:02.466Z,5.20
2018-10-05T17:27:31.557Z,4.53
2018-10-05T17:30:01.033Z,4.10
2018-10-05T17:32:30.168Z,4.33
2018-10-05T17:34:59.743Z,4.70
2018-10-05T17:37:29.503Z,3.90
2018-10-05T17:39:58.979Z,3.60
2018-10-05T17:42:31.378Z,3.93
2018-10-05T17:45:01.845Z,3.90
2018-10-05T17:47:32.550Z,3.73
2018-10-05T17:50:01.932Z,4.00
2018-10-05T17:52:31.113Z,3.80
2018-10-05T17:55:00.684Z,4.17
2018-10-05T17:57:30.057Z,4.87
2018-10-05T17:59:59.253Z,12.13
2018-10-05T18:02:28.990Z,10.63
2018-10-05T18:04:58.325Z,9.70
2018-10-05T18:07:29.128Z,6.50
2018-10-05T18:09:58.969Z,5.00
2018-10-05T18:12:29.417Z,4.70
2018-10-05T18:14:58.628Z,4.50
2018-10-05T18:17:28.506Z,4.77
2018-10-05T18:19:58.465Z,4.50
2018-10-05T18:22:27.791Z,5.20
2018-10-05T18:24:57.465Z,5.30
2018-10-05T18:27:26.715Z,5.37
2018-10-05T18:29:55.789Z,5.70
2018-10-05T18:32:26.606Z,4.83
2018-10-05T18:34:55.825Z,5.83
2018-10-05T18:37:25.345Z,7.13
2018-10-05T18:39:54.643Z,6.77
2018-10-05T18:42:23.851Z,7.07
2018-10-05T18:44:52.944Z,5.20
2018-10-05T18:47:22.218Z,5.10
2018-10-05T18:49:51.495Z,6.03
2018-10-05T18:52:20.642Z,7.33
2018-10-05T18:54:49.997Z,6.00
2018-10-05T18:57:21.361Z,4.23
2018-10-05T18:59:51.185Z,3.40
2018-10-05T19:02:20.859Z,3.20
2018-10-05T19:04:51.410Z,3.50
2018-10-05T19:07:20.961Z,7.13
2018-10-05T19:09:50.137Z,9.80
2018-10-05T19:12:19.506Z,11.13
2018-10-05T19:14:48.821Z,12.97
2018-10-05T19:17:18.050Z,11.93
2018-10-05T19:19:47.549Z,10.70
2018-10-05T19:22:16.765Z,9.13
2018-10-05T19:24:45.960Z,7.60
2018-10-05T19:27:16.211Z,6.93
2018-10-05T19:29:45.673Z,8.10
2018-10-05T19:32:14.962Z,7.30
2018-10-05T19:34:44.130Z,7.77
2018-10-05T19:37:13.313Z,7.00
2018-10-05T19:39:42.754Z,5.83
2018-10-05T19:42:12.090Z,5.03
2018-10-05T19:44:41.787Z,5.00
2018-10-05T19:47:10.870Z,4.50
2018-10-05T19:49:40.130Z,4.17
2018-10-05T19:52:09.791Z,3.73
2018-10-05T19:54:38.975Z,3.23
2018-10-05T19:57:08.420Z,3.43
2018-10-05T19:59:37.806Z,2.90
2018-10-05T20:02:07.019Z,3.20
2018-10-05T20:04:36.983Z,3.40
2018-10-05T20:07:06.289Z,3.40
2018-10-05T20:09:35.509Z,3.07
2018-10-05T20:12:04.860Z,2.53
2018-10-05T20:14:34.100Z,3.00
2018-10-05T20:17:03.725Z,2.80
2018-10-05T20:19:33.249Z,2.67
2018-10-05T20:22:02.398Z,2.43
2018-10-05T20:24:31.687Z,2.60
2018-10-05T20:27:01.539Z,2.60
2018-10-05T20:29:30.865Z,2.60
2018-10-05T20:32:00.145Z,2.63
2018-10-05T20:34:29.466Z,2.50
2018-10-05T20:36:58.868Z,2.83
2018-10-05T20:39:28.108Z,2.40
2018-10-05T20:41:57.787Z,2.40
2018-10-05T20:44:27.655Z,2.40
2018-10-05T20:46:57.150Z,2.70
2018-10-05T20:49:26.235Z,2.33
2018-10-05T20:51:55.430Z,2.30
2018-10-05T20:54:24.757Z,2.33
2018-10-05T20:56:53.802Z,2.33
2018-10-05T20:59:22.926Z,2.60
2018-10-05T21:01:52.257Z,3.03
2018-10-05T21:04:21.608Z,2.60
2018-10-05T21:06:51.381Z,2.30
2018-10-05T21:09:20.654Z,2.30
2018-10-05T21:11:49.941Z,2.20
2018-10-05T21:14:19.104Z,1.90
2018-10-05T21:16:48.702Z,2.03
2018-10-05T21:19:17.841Z,2.07
2018-10-05T21:21:47.039Z,1.87
2018-10-05T21:24:16.291Z,2.30
2018-10-05T21:26:45.522Z,2.23
2018-10-05T21:29:14.718Z,2.37
2018-10-05T21:31:43.964Z,2.47
2018-10-05T21:34:13.006Z,2.60
2018-10-05T21:36:42.329Z,2.50
2018-10-05T21:39:12.137Z,2.33
2018-10-05T21:41:41.465Z,2.20
2018-10-05T21:44:10.831Z,2.50
2018-10-05T21:46:40.510Z,2.33
2018-10-05T21:49:09.667Z,2.23
2018-10-05T21:51:38.837Z,2.83
2018-10-05T21:54:08.106Z,2.43
2018-10-05T21:56:37.320Z,2.30
2018-10-05T21:59:06.641Z,2.13
2018-10-05T22:01:36.093Z,2.07
2018-10-05T22:04:05.245Z,2.30
2018-10-05T22:06:34.429Z,2.20
2018-10-05T22:09:05.498Z,2.30
2018-10-05T22:11:34.708Z,2.00
2018-10-05T22:14:04.057Z,2.30
2018-10-05T22:16:33.304Z,2.10
2018-10-05T22:19:02.469Z,2.10
2018-10-05T22:21:31.570Z,2.30
2018-10-05T22:24:00.839Z,2.00
2018-10-05T22:26:30.020Z,2.40
2018-10-05T22:28:59.167Z,2.10
2018-10-05T22:31:28.309Z,2.53
2018-10-05T22:33:57.641Z,2.20
2018-10-05T22:36:27.481Z,2.60
2018-10-05T22:38:56.699Z,2.60
2018-10-05T22:41:25.866Z,2.27
2018-10-05T22:43:54.938Z,2.13
2018-10-05T22:46:24.083Z,2.23
2018-10-05T22:48:53.336Z,2.10
2018-10-05T22:51:22.665Z,2.40
2018-10-05T22:53:52.108Z,2.00
2018-10-05T22:56:21.406Z,2.20
2018-10-05T22:58:50.674Z,2.17
2018-10-05T23:01:20.130Z,2.50
2018-10-05T23:03:49.153Z,2.83
2018-10-05T23:06:18.273Z,2.53
2018-10-05T23:08:47.654Z,2.33
2018-10-05T23:11:16.893Z,2.67
2018-10-05T23:13:45.993Z,2.67
2018-10-05T23:16:15.493Z,2.40
2018-10-05T23:18:44.857Z,2.20
2018-10-05T23:21:14.101Z,2.50
2018-10-05T23:23:43.577Z,3.00
2018-10-05T23:26:12.669Z,3.00
2018-10-05T23:28:41.758Z,3.40
2018-10-05T23:31:10.925Z,3.00
2018-10-05T23:33:40.145Z,2.53
2018-10-05T23:36:09.373Z,2.90
2018-10-05T23:38:38.868Z,3.70
2018-10-05T23:41:08.156Z,3.60
2018-10-05T23:43:37.273Z,2.67
2018-10-05T23:46:06.657Z,3.47
2018-10-05T23:48:35.649Z,3.00
2018-10-05T23:51:05.169Z,2.70
2018-10-05T23:53:34.601Z,3.53
2018-10-05T23:56:03.768Z,3.47
2018-10-05T23:58:32.981Z,3.87
